Time;durP1;ratioP1;P1;durP2;ratioP2;P2;SDS_P1;SDS_P2;PMS_P1;PMS_P2;Temp;Humidity;BMP_temperature;BMP_pressure;BME280_temperature;BME280_humidity;BME280_pressure;Samples;Min_cycle;Max_cycle;Signal;HPM_P1;HPM_P2
2021/07/12 00:02:13;;;;;;;5.18;4.78;;;;;;;;;;3651414;39;20670;-81
2021/07/12 00:04:41;;;;;;;4.97;4.68;;;;;;;;;;3642502;39;20239;-81
2021/07/12 00:07:09;;;;;;;5.45;5.05;;;;;;;;;;3651378;39;20294;-83
2021/07/12 00:09:36;;;;;;;4.93;4.55;;;;;;;;;;3651251;39;20238;-80
2021/07/12 00:12:04;;;;;;;6.55;5.60;;;;;;;;;;3651429;39;20200;-82
2021/07/12 00:14:31;;;;;;;5.40;5.10;;;;;;;;;;3651071;39;20237;-81
2021/07/12 00:16:59;;;;;;;5.70;5.25;;;;;;;;;;3651391;39;20242;-79
2021/07/12 00:19:26;;;;;;;5.22;4.82;;;;;;;;;;3648398;39;20219;-81
2021/07/12 00:21:55;;;;;;;6.93;5.45;;;;;;;;;;3651321;39;20239;-86
2021/07/12 00:24:23;;;;;;;6.07;5.00;;;;;;;;;;3651109;39;20223;-84
2021/07/12 00:26:50;;;;;;;6.00;5.40;;;;;;;;;;3650976;39;20273;-81
2021/07/12 00:29:17;;;;;;;7.13;4.93;;;;;;;;;;3651228;39;20953;-82
2021/07/12 00:31:45;;;;;;;4.60;4.30;;;;;;;;;;3651266;39;20267;-82
2021/07/12 00:34:12;;;;;;;4.97;4.68;;;;;;;;;;3651081;39;20220;-81
2021/07/12 00:36:40;;;;;;;4.97;4.57;;;;;;;;;;3651134;39;20235;-82
2021/07/12 00:39:09;;;;;;;5.75;5.35;;;;;;;;;;3651077;39;20231;-82
2021/07/12 00:41:37;;;;;;;6.30;5.90;;;;;;;;;;3651156;39;20246;-83
2021/07/12 00:44:05;;;;;;;5.60;5.03;;;;;;;;;;3651203;39;20235;-81
2021/07/12 00:46:32;;;;;;;5.05;4.65;;;;;;;;;;3651045;39;20239;-86
2021/07/12 00:49:00;;;;;;;4.32;4.03;;;;;;;;;;3651157;39;20255;-84
2021/07/12 00:51:28;;;;;;;5.75;5.25;;;;;;;;;;3650858;39;20765;-81
2021/07/12 00:53:55;;;;;;;4.93;4.53;;;;;;;;;;3650780;39;20268;-83
2021/07/12 00:56:31;;;;;;;5.55;5.15;;;;;;;;;;3650833;39;20260;-81
2021/07/12 00:59:03;;;;;;;4.50;4.15;;;;;;;;;;3643410;39;20236;-82
2021/07/12 01:01:31;;;;;;;4.65;4.25;;;;;;;;;;3643945;39;20236;-83
2021/07/12 01:03:58;;;;;;;5.03;4.63;;;;;;;;;;3644226;39;20235;-83
2021/07/12 01:06:26;;;;;;;5.30;4.80;;;;;;;;;;3644111;39;20250;-81
2021/07/12 01:08:56;;;;;;;5.43;5.03;;;;;;;;;;3643789;39;20237;-81
2021/07/12 01:11:28;;;;;;;4.55;4.25;;;;;;;;;;3643774;39;20811;-82
2021/07/12 01:13:59;;;;;;;4.22;3.92;;;;;;;;;;3635274;39;20735;-83
2021/07/12 01:16:46;;;;;;;4.35;3.85;;;;;;;;;;3643882;39;20239;-84
2021/07/12 01:19:31;;;;;;;4.90;4.53;;;;;;;;;;3643668;39;20235;-82
2021/07/12 01:22:09;;;;;;;4.43;4.10;;;;;;;;;;3644092;39;20239;-87
2021/07/12 01:25:04;;;;;;;6.13;4.65;;;;;;;;;;3644414;39;20236;-81
2021/07/12 01:27:42;;;;;;;4.80;4.40;;;;;;;;;;3643893;39;20248;-81
2021/07/12 01:30:13;;;;;;;4.18;3.88;;;;;;;;;;3643799;39;20236;-87
2021/07/12 01:33:00;;;;;;;4.95;4.53;;;;;;;;;;3633418;39;20225;-82
2021/07/12 01:35:33;;;;;;;4.63;4.20;;;;;;;;;;3633335;39;20239;-82
2021/07/12 01:38:10;;;;;;;4.53;4.18;;;;;;;;;;3633439;39;20240;-83
2021/07/12 01:40:43;;;;;;;5.00;4.60;;;;;;;;;;3633457;39;20231;-83
2021/07/12 01:43:18;;;;;;;4.80;4.47;;;;;;;;;;3633451;39;20240;-82
2021/07/12 01:45:54;;;;;;;6.57;4.82;;;;;;;;;;3633523;39;20653;-84
2021/07/12 01:48:28;;;;;;;5.00;4.68;;;;;;;;;;3633318;39;20720;-81
2021/07/12 01:50:58;;;;;;;5.60;5.10;;;;;;;;;;3633230;39;20267;-81
2021/07/12 01:53:32;;;;;;;6.97;6.47;;;;;;;;;;3633597;39;20252;-81
2021/07/12 01:56:02;;;;;;;7.35;5.75;;;;;;;;;;3633322;39;20284;-81
2021/07/12 01:58:38;;;;;;;7.07;5.32;;;;;;;;;;3633139;39;20243;-81
2021/07/12 02:01:10;;;;;;;6.55;6.00;;;;;;;;;;3633110;39;20813;-81
2021/07/12 02:03:39;;;;;;;7.60;6.97;;;;;;;;;;3633277;39;20244;-83
2021/07/12 02:06:09;;;;;;;8.85;7.60;;;;;;;;;;3633371;39;20256;-81
2021/07/12 02:08:41;;;;;;;8.38;7.22;;;;;;;;;;3632841;39;20229;-81
2021/07/12 02:11:15;;;;;;;6.95;6.25;;;;;;;;;;3624433;39;20243;-81
2021/07/12 02:13:46;;;;;;;9.73;7.03;;;;;;;;;;3633153;39;20294;-84
2021/07/12 02:16:17;;;;;;;6.15;5.75;;;;;;;;;;3624542;39;20737;-81
2021/07/12 02:18:47;;;;;;;8.15;6.30;;;;;;;;;;3633418;39;20246;-82
2021/07/12 02:21:24;;;;;;;9.15;5.78;;;;;;;;;;3633047;39;20741;-83
2021/07/12 02:23:57;;;;;;;6.68;5.30;;;;;;;;;;3633093;39;20236;-82
2021/07/12 02:26:29;;;;;;;5.75;5.18;;;;;;;;;;3624556;39;20248;-82
2021/07/12 02:28:58;;;;;;;6.55;5.90;;;;;;;;;;3632990;39;20232;-81
2021/07/12 02:31:26;;;;;;;7.35;4.57;;;;;;;;;;3633271;39;20293;-82
2021/07/12 02:33:55;;;;;;;5.18;4.78;;;;;;;;;;3633274;39;20224;-84
2021/07/12 02:36:24;;;;;;;6.72;4.88;;;;;;;;;;3633164;39;20282;-82
2021/07/12 02:38:55;;;;;;;5.18;4.78;;;;;;;;;;3624501;39;20763;-82
2021/07/12 02:41:25;;;;;;;5.10;4.68;;;;;;;;;;3632989;39;20201;-81
2021/07/12 02:43:54;;;;;;;5.18;4.78;;;;;;;;;;3633025;39;20215;-82
2021/07/12 02:46:25;;;;;;;5.05;4.55;;;;;;;;;;3633060;39;20244;-83
2021/07/12 02:48:55;;;;;;;4.63;4.18;;;;;;;;;;3632783;39;20282;-81
2021/07/12 02:51:28;;;;;;;4.20;3.80;;;;;;;;;;3632932;39;20232;-82
2021/07/12 02:54:00;;;;;;;5.93;4.38;;;;;;;;;;3624378;39;20232;-81
2021/07/12 02:56:27;;;;;;;4.38;3.97;;;;;;;;;;3638186;39;20243;-82
2021/07/12 02:58:55;;;;;;;8.38;5.93;;;;;;;;;;3642886;39;20236;-82
2021/07/12 03:01:24;;;;;;;9.82;5.15;;;;;;;;;;3643272;39;20248;-80
2021/07/12 03:03:53;;;;;;;7.85;5.65;;;;;;;;;;3643199;39;20244;-79
2021/07/12 03:06:29;;;;;;;6.07;4.95;;;;;;;;;;3643080;39;20239;-79
2021/07/12 03:09:00;;;;;;;13.63;5.40;;;;;;;;;;3643395;39;20207;-80
2021/07/12 03:11:32;;;;;;;6.10;5.15;;;;;;;;;;3643365;39;20761;-80
2021/07/12 03:14:03;;;;;;;13.32;5.65;;;;;;;;;;3643020;39;20244;-79
2021/07/12 03:16:38;;;;;;;6.25;5.35;;;;;;;;;;3642929;39;20328;-79
2021/07/12 03:19:07;;;;;;;10.23;5.38;;;;;;;;;;3634370;39;20216;-79
2021/07/12 03:21:39;;;;;;;7.22;5.32;;;;;;;;;;3644416;39;20252;-83
2021/07/12 03:24:08;;;;;;;6.22;5.60;;;;;;;;;;3634472;39;20247;-80
2021/07/12 03:26:41;;;;;;;8.82;6.95;;;;;;;;;;3642940;39;20299;-78
2021/07/12 03:29:09;;;;;;;6.85;6.25;;;;;;;;;;3642958;39;20773;-80
2021/07/12 03:31:37;;;;;;;8.55;6.07;;;;;;;;;;3642857;39;20227;-81
2021/07/12 03:34:05;;;;;;;7.72;5.93;;;;;;;;;;3642937;39;20243;-79
2021/07/12 03:36:34;;;;;;;6.97;5.60;;;;;;;;;;3642997;39;20220;-81
2021/07/12 03:39:05;;;;;;;11.38;6.75;;;;;;;;;;3642989;39;20231;-79
2021/07/12 03:41:37;;;;;;;9.68;6.55;;;;;;;;;;3642811;39;20288;-80
2021/07/12 03:44:04;;;;;;;8.73;5.75;;;;;;;;;;3634345;39;20239;-80
2021/07/12 03:46:33;;;;;;;10.40;6.10;;;;;;;;;;3634211;39;20832;-80
2021/07/12 03:49:10;;;;;;;6.93;5.75;;;;;;;;;;3642712;39;20236;-78
2021/07/12 03:51:39;;;;;;;6.00;5.40;;;;;;;;;;3634338;39;20239;-79
2021/07/12 03:54:08;;;;;;;9.77;6.43;;;;;;;;;;3642893;39;20242;-79
2021/07/12 03:56:35;;;;;;;8.43;6.38;;;;;;;;;;3643064;39;20261;-80
2021/07/12 03:59:03;;;;;;;9.85;4.80;;;;;;;;;;3642656;39;20219;-79
2021/07/12 04:01:30;;;;;;;9.48;5.63;;;;;;;;;;3643041;39;20239;-79
2021/07/12 04:03:58;;;;;;;372.88;43.83;;;;;;;;;;3642896;39;20281;-78
2021/07/12 04:06:25;;;;;;;10.65;6.80;;;;;;;;;;3642931;39;20296;-83
2021/07/12 04:08:52;;;;;;;6.65;6.15;;;;;;;;;;3642558;39;20242;-79
2021/07/12 04:11:28;;;;;;;6.97;5.60;;;;;;;;;;3642642;39;20724;-81
2021/07/12 04:13:56;;;;;;;6.38;5.88;;;;;;;;;;3642755;39;20239;-79
2021/07/12 04:16:23;;;;;;;6.93;6.32;;;;;;;;;;3642808;39;20234;-79
2021/07/12 04:18:50;;;;;;;7.78;6.63;;;;;;;;;;3642586;39;20250;-81
2021/07/12 04:21:18;;;;;;;8.90;8.15;;;;;;;;;;3642474;39;20664;-79
2021/07/12 04:23:45;;;;;;;8.43;7.45;;;;;;;;;;3642512;39;20243;-79
2021/07/12 04:26:13;;;;;;;7.30;6.50;;;;;;;;;;3642834;39;20793;-79
2021/07/12 04:28:42;;;;;;;9.40;7.47;;;;;;;;;;3642430;39;20248;-81
2021/07/12 04:31:09;;;;;;;7.97;7.05;;;;;;;;;;3638437;39;20288;-83
2021/07/12 04:33:37;;;;;;;10.25;5.90;;;;;;;;;;3633529;39;20240;-81
2021/07/12 04:36:04;;;;;;;8.00;6.50;;;;;;;;;;3633830;39;20220;-79
2021/07/12 04:38:32;;;;;;;7.55;6.38;;;;;;;;;;3634262;39;20243;-80
2021/07/12 04:40:59;;;;;;;8.90;7.38;;;;;;;;;;3633671;39;20236;-80
2021/07/12 04:43:28;;;;;;;6.60;5.93;;;;;;;;;;3625120;39;20237;-79
2021/07/12 04:45:57;;;;;;;14.02;6.70;;;;;;;;;;3633992;39;20228;-78
2021/07/12 04:48:24;;;;;;;8.45;6.95;;;;;;;;;;3633671;39;20268;-81
2021/07/12 04:50:52;;;;;;;8.13;6.80;;;;;;;;;;3633869;39;20236;-80
2021/07/12 04:53:19;;;;;;;9.95;6.35;;;;;;;;;;3634078;39;20220;-79
2021/07/12 04:55:46;;;;;;;6.28;5.70;;;;;;;;;;3633664;39;20256;-80
2021/07/12 04:58:14;;;;;;;8.98;6.32;;;;;;;;;;3633823;39;20247;-79
2021/07/12 05:00:41;;;;;;;10.73;6.00;;;;;;;;;;3633832;39;20224;-81
2021/07/12 05:03:10;;;;;;;9.18;5.85;;;;;;;;;;3633666;39;20251;-79
2021/07/12 05:05:37;;;;;;;6.40;5.90;;;;;;;;;;3633948;39;20220;-82
2021/07/12 05:08:05;;;;;;;11.68;5.75;;;;;;;;;;3633793;39;20240;-80
2021/07/12 05:10:32;;;;;;;9.98;5.93;;;;;;;;;;3633356;39;20251;-79
2021/07/12 05:12:59;;;;;;;7.43;5.25;;;;;;;;;;3642833;39;20239;-79
2021/07/12 05:15:27;;;;;;;9.02;7.20;;;;;;;;;;3644208;39;20232;-80
2021/07/12 05:17:54;;;;;;;10.60;6.13;;;;;;;;;;3644157;39;20247;-80
2021/07/12 05:20:23;;;;;;;10.15;7.82;;;;;;;;;;3643921;39;20242;-79
2021/07/12 05:22:50;;;;;;;8.23;7.43;;;;;;;;;;3644104;39;20243;-80
2021/07/12 05:25:17;;;;;;;8.43;7.72;;;;;;;;;;3644041;39;20232;-79
2021/07/12 05:27:44;;;;;;;7.30;6.38;;;;;;;;;;3643967;39;20248;-80
2021/07/12 05:30:12;;;;;;;5.90;5.43;;;;;;;;;;3643910;39;20224;-79
2021/07/12 05:32:40;;;;;;;10.60;9.65;;;;;;;;;;3644006;39;20227;-79
2021/07/12 05:35:08;;;;;;;5.45;4.55;;;;;;;;;;3644010;39;20228;-78
2021/07/12 05:37:37;;;;;;;6.57;5.60;;;;;;;;;;3643954;39;20208;-80
2021/07/12 05:40:05;;;;;;;5.57;5.03;;;;;;;;;;3643463;39;20284;-84
2021/07/12 05:42:33;;;;;;;5.10;4.70;;;;;;;;;;3643940;39;20258;-79
2021/07/12 05:45:00;;;;;;;6.35;5.85;;;;;;;;;;3643869;39;20224;-79
2021/07/12 05:47:27;;;;;;;5.78;5.38;;;;;;;;;;3643848;39;20248;-79
2021/07/12 05:49:55;;;;;;;5.45;5.00;;;;;;;;;;3638100;39;20240;-86
2021/07/12 05:52:22;;;;;;;5.78;5.18;;;;;;;;;;3633648;39;20236;-84
2021/07/12 05:54:51;;;;;;;5.13;4.72;;;;;;;;;;3637565;39;20224;-80
2021/07/12 05:57:18;;;;;;;4.90;4.10;;;;;;;;;;3635195;39;20224;-80
2021/07/12 05:59:45;;;;;;;3.83;3.55;;;;;;;;;;3636532;39;20235;-80
2021/07/12 06:02:13;;;;;;;4.70;4.30;;;;;;;;;;3639947;39;20239;-80
2021/07/12 06:04:40;;;;;;;4.78;4.20;;;;;;;;;;3633020;39;20220;-80
2021/07/12 06:07:07;;;;;;;4.68;4.30;;;;;;;;;;3632854;39;20262;-80
2021/07/12 06:09:35;;;;;;;5.72;5.20;;;;;;;;;;3632887;39;20224;-81
2021/07/12 06:12:04;;;;;;;5.13;4.63;;;;;;;;;;3633044;39;20729;-79
2021/07/12 06:14:31;;;;;;;4.75;4.38;;;;;;;;;;3636056;39;20224;-84
2021/07/12 06:16:58;;;;;;;4.82;4.47;;;;;;;;;;3641401;39;20208;-80
2021/07/12 06:19:26;;;;;;;5.18;4.05;;;;;;;;;;3639729;39;20243;-81
2021/07/12 06:21:53;;;;;;;5.00;4.60;;;;;;;;;;3643125;39;20204;-81
2021/07/12 06:24:20;;;;;;;5.22;4.60;;;;;;;;;;3633621;39;20770;-81
2021/07/12 06:26:48;;;;;;;4.45;4.15;;;;;;;;;;3632008;39;20232;-84
2021/07/12 06:29:17;;;;;;;5.18;4.78;;;;;;;;;;3631702;39;20332;-84
2021/07/12 06:31:44;;;;;;;5.63;4.47;;;;;;;;;;3631829;39;20203;-81
2021/07/12 06:34:11;;;;;;;5.25;4.75;;;;;;;;;;3632372;39;20228;-81
2021/07/12 06:36:39;;;;;;;4.20;3.90;;;;;;;;;;3631827;39;20236;-82
2021/07/12 06:39:06;;;;;;;4.10;3.78;;;;;;;;;;3632256;39;20474;-80
2021/07/12 06:41:33;;;;;;;5.28;4.32;;;;;;;;;;3632371;39;20233;-82
2021/07/12 06:44:01;;;;;;;4.57;4.28;;;;;;;;;;3633015;39;20213;-82
2021/07/12 06:46:34;;;;;;;4.40;4.07;;;;;;;;;;3633409;39;20236;-80
2021/07/12 06:49:02;;;;;;;3.50;3.30;;;;;;;;;;3642810;39;20288;-81
2021/07/12 06:51:30;;;;;;;3.28;3.03;;;;;;;;;;3643107;39;20228;-82
2021/07/12 06:53:57;;;;;;;3.60;2.80;;;;;;;;;;3643059;39;20667;-80
2021/07/12 06:56:24;;;;;;;2.08;1.98;;;;;;;;;;3642566;39;20228;-80
2021/07/12 06:58:52;;;;;;;3.45;3.25;;;;;;;;;;3642959;39;20240;-81
2021/07/12 07:01:19;;;;;;;3.55;2.90;;;;;;;;;;3642578;39;20231;-86
2021/07/12 07:03:48;;;;;;;2.60;2.40;;;;;;;;;;3642698;39;20204;-81
2021/07/12 07:06:15;;;;;;;3.55;3.35;;;;;;;;;;3642433;39;20224;-80
2021/07/12 07:08:43;;;;;;;3.78;2.97;;;;;;;;;;3642831;39;20254;-82
2021/07/12 07:11:12;;;;;;;3.35;3.05;;;;;;;;;;3641001;39;20224;-82
2021/07/12 07:13:45;;;;;;;3.33;3.10;;;;;;;;;;3632359;39;20254;-80
2021/07/12 07:16:12;;;;;;;3.50;2.95;;;;;;;;;;3638799;39;20235;-82
2021/07/12 07:18:39;;;;;;;3.05;2.67;;;;;;;;;;3646781;39;20227;-81
2021/07/12 07:21:12;;;;;;;3.25;3.03;;;;;;;;;;3649604;39;20220;-80
2021/07/12 07:23:39;;;;;;;2.70;2.50;;;;;;;;;;3645665;39;20230;-82
2021/07/12 07:26:10;;;;;;;6.10;3.17;;;;;;;;;;3642526;39;20234;-80
2021/07/12 07:28:38;;;;;;;3.92;3.60;;;;;;;;;;3635351;39;20237;-82
2021/07/12 07:31:05;;;;;;;3.00;2.78;;;;;;;;;;3636278;39;20284;-80
2021/07/12 07:33:33;;;;;;;3.47;3.17;;;;;;;;;;3635891;39;20228;-79
2021/07/12 07:36:00;;;;;;;2.67;2.47;;;;;;;;;;3632488;39;20209;-82
2021/07/12 07:38:29;;;;;;;2.97;2.72;;;;;;;;;;3640614;39;20299;-80
2021/07/12 07:40:56;;;;;;;4.07;2.70;;;;;;;;;;3637458;39;20247;-81
2021/07/12 07:43:25;;;;;;;3.45;3.15;;;;;;;;;;3639576;22;20634;-40
2021/07/12 07:45:53;;;;;;;3.50;3.30;;;;;;;;;;3584683;40;20254;-41
2021/07/12 07:48:20;;;;;;;4.13;2.95;;;;;;;;;;3588076;40;20246;-40
2021/07/12 07:50:47;;;;;;;2.75;2.55;;;;;;;;;;3587914;40;20521;-40
2021/07/12 07:53:15;;;;;;;3.00;2.50;;;;;;;;;;3586910;40;20632;-41
2021/07/12 07:55:44;;;;;;;3.60;3.30;;;;;;;;;;3588009;40;20223;-40
2021/07/12 07:58:11;;;;;;;3.70;2.83;;;;;;;;;;3586980;40;20235;-41
2021/07/12 08:00:41;;;;;;;3.33;2.92;;;;;;;;;;3577620;40;20241;-41
2021/07/12 08:06:35;;;;;;;6.75;3.30;;;;;;;;;;3583346;40;20245;-40
2021/07/12 08:09:02;;;;;;;4.65;3.47;;;;;;;;;;3588730;40;20567;-40
2021/07/12 08:11:31;;;;;;;3.33;3.03;;;;;;;;;;3589431;40;20250;-42
2021/07/12 08:14:00;;;;;;;5.28;3.00;;;;;;;;;;3590065;40;20578;-42
2021/07/12 08:16:28;;;;;;;3.78;3.38;;;;;;;;;;3589145;40;20238;-41
2021/07/12 08:18:55;;;;;;;4.18;3.42;;;;;;;;;;3589293;40;20242;-40
2021/07/12 08:21:23;;;;;;;3.70;3.38;;;;;;;;;;3589008;40;20570;-41
2021/07/12 08:23:51;;;;;;;4.05;3.50;;;;;;;;;;3587947;40;20235;-42
2021/07/12 08:26:20;;;;;;;6.78;3.65;;;;;;;;;;3588546;40;20242;-41
2021/07/12 08:28:50;;;;;;;3.30;3.03;;;;;;;;;;3588512;40;20654;-42
2021/07/12 08:31:17;;;;;;;3.97;3.10;;;;;;;;;;3588988;40;20231;-41
2021/07/12 08:33:45;;;;;;;4.75;3.47;;;;;;;;;;3589729;40;20496;-40
2021/07/12 08:36:16;;;;;;;5.65;3.67;;;;;;;;;;3588719;40;20239;-40
2021/07/12 08:38:43;;;;;;;3.33;3.03;;;;;;;;;;3590000;40;20238;-41
2021/07/12 08:41:11;;;;;;;3.55;3.22;;;;;;;;;;3589828;40;20234;-40
2021/07/12 08:43:40;;;;;;;3.00;2.80;;;;;;;;;;3588436;40;20228;-42
2021/07/12 08:46:08;;;;;;;5.18;4.18;;;;;;;;;;3588679;40;20261;-40
2021/07/12 08:48:36;;;;;;;5.20;3.63;;;;;;;;;;3588779;40;20235;-43
2021/07/12 08:51:03;;;;;;;3.97;3.65;;;;;;;;;;3588770;40;20245;-40
2021/07/12 08:53:31;;;;;;;4.00;3.70;;;;;;;;;;3598014;40;20246;-40
2021/07/12 08:55:58;;;;;;;3.83;3.53;;;;;;;;;;3593238;39;20246;-42
2021/07/12 08:58:27;;;;;;;5.38;3.65;;;;;;;;;;3589300;40;20509;-40
2021/07/12 09:01:00;;;;;;;4.53;3.80;;;;;;;;;;3588979;40;20230;-44
2021/07/12 09:03:30;;;;;;;4.43;3.70;;;;;;;;;;3594501;40;20234;-40
2021/07/12 09:06:06;;;;;;;4.07;3.75;;;;;;;;;;3592314;39;20238;-40
2021/07/12 09:08:39;;;;;;;5.60;4.20;;;;;;;;;;3588835;40;20331;-40
2021/07/12 09:11:07;;;;;;;8.02;4.65;;;;;;;;;;3588989;40;20231;-40
2021/07/12 09:13:48;;;;;;;4.88;4.35;;;;;;;;;;3590003;40;20242;-40
2021/07/12 09:16:32;;;;;;;5.38;4.13;;;;;;;;;;3590497;40;20602;-41
2021/07/12 09:19:11;;;;;;;6.32;3.85;;;;;;;;;;3588568;40;20233;-42
2021/07/12 09:21:41;;;;;;;5.00;4.43;;;;;;;;;;3588751;40;20249;-41
2021/07/12 09:24:13;;;;;;;5.40;4.82;;;;;;;;;;3588498;40;20253;-40
2021/07/12 09:26:42;;;;;;;4.05;3.75;;;;;;;;;;3588820;40;20242;-40
2021/07/12 09:29:14;;;;;;;4.32;3.95;;;;;;;;;;3594811;40;20250;-43
2021/07/12 09:31:41;;;;;;;4.90;4.13;;;;;;;;;;3594546;40;20230;-43
2021/07/12 09:34:08;;;;;;;5.25;4.00;;;;;;;;;;3590670;40;20234;-43
2021/07/12 09:36:37;;;;;;;6.28;4.07;;;;;;;;;;3598364;39;20614;-41
2021/07/12 09:39:29;;;;;;;3.83;3.58;;;;;;;;;;3588344;40;20234;-43
2021/07/12 09:41:57;;;;;;;4.47;3.92;;;;;;;;;;3581144;40;20314;-41
2021/07/12 09:44:26;;;;;;;3.90;3.60;;;;;;;;;;3592518;40;20546;-41
2021/07/12 09:46:55;;;;;;;4.15;3.08;;;;;;;;;;3589290;40;20242;-43
2021/07/12 09:49:23;;;;;;;4.82;4.05;;;;;;;;;;3588134;40;20242;-41
2021/07/12 09:51:55;;;;;;;3.85;3.55;;;;;;;;;;3588970;40;20242;-41
2021/07/12 09:54:24;;;;;;;4.18;3.83;;;;;;;;;;3595171;40;20249;-41
2021/07/12 09:56:53;;;;;;;4.22;3.92;;;;;;;;;;3594034;40;20246;-41
2021/07/12 09:59:21;;;;;;;4.50;4.20;;;;;;;;;;3592479;39;20240;-41
2021/07/12 10:01:49;;;;;;;4.28;3.97;;;;;;;;;;3588278;40;20537;-43
2021/07/12 10:04:17;;;;;;;4.75;4.35;;;;;;;;;;3587967;40;20246;-44
2021/07/12 10:06:45;;;;;;;3.97;3.67;;;;;;;;;;3588983;40;20250;-43
2021/07/12 10:09:15;;;;;;;4.30;4.00;;;;;;;;;;3588150;40;20242;-42
2021/07/12 10:11:44;;;;;;;9.02;4.38;;;;;;;;;;3587686;40;20592;-43
2021/07/12 10:14:12;;;;;;;4.43;4.10;;;;;;;;;;3588422;40;20597;-41
2021/07/12 10:16:39;;;;;;;5.05;4.65;;;;;;;;;;3588404;40;20241;-41
2021/07/12 10:19:07;;;;;;;4.78;4.18;;;;;;;;;;3588894;40;20254;-40
2021/07/12 10:21:36;;;;;;;4.60;4.30;;;;;;;;;;3589635;40;20242;-40
2021/07/12 10:24:03;;;;;;;4.90;4.47;;;;;;;;;;3587212;40;20371;-40
2021/07/12 10:26:49;;;;;;;4.68;4.28;;;;;;;;;;3587856;40;20257;-41
2021/07/12 10:29:17;;;;;;;4.60;4.20;;;;;;;;;;3588169;40;20540;-41
2021/07/12 10:31:58;;;;;;;3.58;3.35;;;;;;;;;;3587951;40;20687;-41
2021/07/12 10:34:26;;;;;;;4.80;4.40;;;;;;;;;;3587915;40;20242;-41
2021/07/12 10:37:07;;;;;;;5.43;3.95;;;;;;;;;;3587933;40;20317;-42
2021/07/12 10:39:52;;;;;;;4.63;4.32;;;;;;;;;;3588468;40;20599;-41
2021/07/12 10:42:48;;;;;;;3.97;3.70;;;;;;;;;;3586211;40;20230;-41
2021/07/12 10:45:18;;;;;;;4.78;4.38;;;;;;;;;;3569724;40;20315;-41
2021/07/12 10:47:46;;;;;;;4.70;4.30;;;;;;;;;;3588721;40;20257;-43
2021/07/12 10:50:32;;;;;;;4.15;3.75;;;;;;;;;;3588312;40;20530;-43
2021/07/12 10:52:59;;;;;;;4.65;4.25;;;;;;;;;;3588022;40;20241;-41
2021/07/12 10:55:30;;;;;;;4.63;4.22;;;;;;;;;;3587989;40;20233;-41
2021/07/12 10:58:12;;;;;;;4.97;3.70;;;;;;;;;;3588365;40;20271;-42
2021/07/12 11:00:41;;;;;;;4.00;3.65;;;;;;;;;;3587839;40;20645;-41
2021/07/12 11:03:33;;;;;;;5.03;4.13;;;;;;;;;;3588038;40;20234;-42
2021/07/12 11:06:00;;;;;;;4.40;3.15;;;;;;;;;;3585672;40;20246;-42
2021/07/12 11:08:42;;;;;;;4.47;4.13;;;;;;;;;;3588421;40;20234;-41
2021/07/12 11:11:10;;;;;;;3.78;3.45;;;;;;;;;;3589795;40;20248;-41
2021/07/12 11:13:50;;;;;;;4.75;4.45;;;;;;;;;;3590582;40;20577;-41
2021/07/12 11:16:19;;;;;;;4.75;4.22;;;;;;;;;;3587948;40;20312;-41
2021/07/12 11:18:47;;;;;;;4.68;4.28;;;;;;;;;;3587398;40;20238;-40
2021/07/12 11:21:15;;;;;;;4.35;4.05;;;;;;;;;;3587944;40;20238;-41
2021/07/12 11:23:53;;;;;;;5.13;4.40;;;;;;;;;;3585164;40;20594;-40
2021/07/12 11:26:51;;;;;;;4.70;4.30;;;;;;;;;;3587718;40;20238;-40
2021/07/12 11:29:33;;;;;;;4.05;3.75;;;;;;;;;;3586093;40;20237;-42
2021/07/12 11:32:16;;;;;;;6.57;5.22;;;;;;;;;;3587697;40;20234;-41
2021/07/12 11:34:47;;;;;;;6.45;5.18;;;;;;;;;;3587206;40;20250;-41
2021/07/12 11:37:15;;;;;;;5.88;5.00;;;;;;;;;;3587368;40;20607;-40
2021/07/12 11:39:44;;;;;;;8.48;5.32;;;;;;;;;;3587539;40;20631;-43
2021/07/12 11:42:13;;;;;;;5.22;4.85;;;;;;;;;;3591814;40;20246;-41
2021/07/12 11:44:45;;;;;;;4.95;4.47;;;;;;;;;;3592590;40;20633;-43
2021/07/12 11:47:18;;;;;;;8.77;5.88;;;;;;;;;;3591032;40;20493;-39
2021/07/12 11:49:52;;;;;;;11.23;6.13;;;;;;;;;;3591469;40;20241;-41
2021/07/12 11:52:19;;;;;;;6.10;5.50;;;;;;;;;;3592211;40;20632;-41
2021/07/12 11:54:47;;;;;;;6.43;6.03;;;;;;;;;;3591630;40;20523;-41
2021/07/12 11:57:15;;;;;;;6.53;6.07;;;;;;;;;;3591294;40;20520;-40
2021/07/12 11:59:45;;;;;;;6.25;5.68;;;;;;;;;;3590996;40;20262;-40
2021/07/12 12:02:14;;;;;;;4.90;4.50;;;;;;;;;;3591556;40;20235;-41
2021/07/12 12:04:59;;;;;;;7.38;6.80;;;;;;;;;;3595174;40;20265;-41
2021/07/12 12:07:29;;;;;;;6.63;6.10;;;;;;;;;;3600966;39;20706;-41
2021/07/12 12:09:57;;;;;;;6.50;5.90;;;;;;;;;;3595806;39;20249;-40
2021/07/12 12:12:25;;;;;;;6.95;6.35;;;;;;;;;;3591022;40;20234;-40
2021/07/12 12:14:57;;;;;;;6.80;6.30;;;;;;;;;;3591492;40;20512;-41
2021/07/12 12:17:25;;;;;;;10.13;6.00;;;;;;;;;;3591226;39;20272;-39
2021/07/12 12:20:14;;;;;;;5.63;5.20;;;;;;;;;;3589699;40;20226;-41
2021/07/12 12:22:59;;;;;;;6.32;5.78;;;;;;;;;;3597527;40;20225;-41
2021/07/12 12:25:27;;;;;;;6.57;5.80;;;;;;;;;;3600279;39;20241;-40
2021/07/12 12:27:54;;;;;;;8.15;6.45;;;;;;;;;;3601124;40;20241;-40
2021/07/12 12:30:22;;;;;;;7.15;5.50;;;;;;;;;;3599828;39;20238;-40
2021/07/12 12:32:54;;;;;;;7.03;6.28;;;;;;;;;;3594312;40;20522;-42
2021/07/12 12:35:22;;;;;;;14.38;7.68;;;;;;;;;;3589840;40;20230;-40
2021/07/12 12:37:49;;;;;;;7.07;6.53;;;;;;;;;;3590289;40;20334;-40
2021/07/12 12:40:20;;;;;;;7.13;6.18;;;;;;;;;;3589482;40;20250;-40
2021/07/12 12:42:48;;;;;;;5.63;5.25;;;;;;;;;;3590601;40;20470;-40
2021/07/12 12:45:24;;;;;;;5.75;5.25;;;;;;;;;;3590539;40;20680;-41
2021/07/12 12:47:51;;;;;;;6.72;5.97;;;;;;;;;;3590169;40;20266;-40
2021/07/12 12:50:19;;;;;;;6.88;6.38;;;;;;;;;;3589995;40;20610;-41
2021/07/12 12:52:47;;;;;;;5.75;5.07;;;;;;;;;;3590385;40;20329;-40
2021/07/12 12:55:15;;;;;;;7.35;5.72;;;;;;;;;;3592092;40;20503;-43
2021/07/12 12:57:47;;;;;;;6.47;5.97;;;;;;;;;;3591475;40;20246;-40
2021/07/12 13:00:15;;;;;;;6.15;5.65;;;;;;;;;;3591826;40;20483;-40
2021/07/12 13:02:44;;;;;;;6.07;5.57;;;;;;;;;;3591840;40;20241;-41
2021/07/12 13:05:17;;;;;;;6.15;5.30;;;;;;;;;;3591659;40;20241;-42
2021/07/12 13:07:45;;;;;;;5.97;5.40;;;;;;;;;;3594496;40;20315;-41
2021/07/12 13:10:14;;;;;;;5.80;5.30;;;;;;;;;;3592945;39;20247;-40
2021/07/12 13:12:42;;;;;;;5.82;5.32;;;;;;;;;;3593295;40;20478;-40
2021/07/12 13:15:11;;;;;;;5.88;5.43;;;;;;;;;;3601466;39;20250;-41
2021/07/12 13:17:39;;;;;;;6.95;6.38;;;;;;;;;;3601207;39;20245;-41
2021/07/12 13:20:08;;;;;;;6.53;5.93;;;;;;;;;;3597622;39;20230;-40
2021/07/12 13:22:36;;;;;;;5.63;5.03;;;;;;;;;;3598863;39;20264;-40
2021/07/12 13:25:07;;;;;;;7.75;5.72;;;;;;;;;;3599276;39;20323;-40
2021/07/12 13:27:36;;;;;;;5.60;5.20;;;;;;;;;;3598714;39;20249;-41
2021/07/12 13:30:05;;;;;;;6.05;5.65;;;;;;;;;;3598526;40;20293;-41
2021/07/12 13:32:34;;;;;;;6.47;4.85;;;;;;;;;;3589593;40;20230;-40
2021/07/12 13:35:01;;;;;;;5.28;4.88;;;;;;;;;;3588802;40;20636;-40
2021/07/12 13:37:29;;;;;;;5.82;5.40;;;;;;;;;;3588501;40;20597;-40
2021/07/12 13:39:57;;;;;;;5.00;4.60;;;;;;;;;;3588944;40;20516;-40
2021/07/12 13:42:25;;;;;;;5.38;4.80;;;;;;;;;;3588730;40;20234;-40
2021/07/12 13:44:52;;;;;;;5.30;4.90;;;;;;;;;;3598608;40;20229;-41
2021/07/12 13:47:20;;;;;;;4.38;4.07;;;;;;;;;;3595979;40;20328;-40
2021/07/12 13:49:48;;;;;;;5.70;5.30;;;;;;;;;;3588293;40;20238;-41
2021/07/12 13:52:17;;;;;;;5.82;5.43;;;;;;;;;;3588368;40;20246;-42
2021/07/12 13:54:45;;;;;;;5.00;4.60;;;;;;;;;;3588056;40;20284;-40
2021/07/12 13:57:12;;;;;;;5.28;4.78;;;;;;;;;;3622368;22;20246;-40
2021/07/12 13:59:43;;;;;;;5.90;5.45;;;;;;;;;;3587611;40;20218;-38
2021/07/12 14:02:11;;;;;;;5.30;4.75;;;;;;;;;;3588284;40;20323;-38
2021/07/12 14:04:39;;;;;;;5.07;4.68;;;;;;;;;;3588318;40;20324;-39
2021/07/12 14:07:08;;;;;;;4.90;4.50;;;;;;;;;;3592170;40;20585;-38
2021/07/12 14:09:35;;;;;;;5.50;5.05;;;;;;;;;;3597938;39;20230;-40
2021/07/12 14:12:04;;;;;;;4.97;4.57;;;;;;;;;;3598495;40;20241;-38
2021/07/12 14:59:41;;;;;;;4.65;4.22;;;;;;;;;;1222177;22;21835;-84
2021/07/12 15:10:45;;;;;;;7.18;5.15;;;;;;;;;;3689648;22;20240;-83
2021/07/12 15:19:14;;;;;;;4.32;4.03;;;;;;;;;;1229047;22;21708;-85
2021/07/12 15:40:39;;;;;;;4.75;4.35;;;;;;;;;;1219146;22;20405;-84
2021/07/12 15:45:54;;;;;;;4.57;4.22;;;;;;;;;;3734398;22;20233;-84
2021/07/12 15:51:05;;;;;;;4.53;4.13;;;;;;;;;;3623148;39;20261;-86
2021/07/12 15:56:07;;;;;;;9.27;4.50;;;;;;;;;;3643301;39;20223;-87
2021/07/12 15:58:34;;;;;;;5.97;4.18;;;;;;;;;;3644193;39;20212;-88
2021/07/12 16:01:04;;;;;;;4.18;3.72;;;;;;;;;;3644183;39;20227;-84
2021/07/12 16:06:13;;;;;;;4.38;4.07;;;;;;;;;;3632864;39;20224;-86
2021/07/12 16:08:43;;;;;;;4.82;4.43;;;;;;;;;;3625825;39;20213;-83
2021/07/12 16:13:51;;;;;;;7.25;4.65;;;;;;;;;;3643074;39;20224;-85
2021/07/12 16:16:20;;;;;;;6.13;5.53;;;;;;;;;;3643920;39;20261;-84
2021/07/12 16:18:47;;;;;;;8.27;7.47;;;;;;;;;;3635199;39;20244;-84
2021/07/12 16:21:16;;;;;;;5.53;4.72;;;;;;;;;;3644072;39;20232;-83
2021/07/12 16:23:43;;;;;;;4.03;3.63;;;;;;;;;;3633473;39;20221;-84
2021/07/12 16:26:12;;;;;;;3.67;3.38;;;;;;;;;;3625490;39;20220;-85
2021/07/12 16:28:40;;;;;;;3.50;3.30;;;;;;;;;;3651454;39;20251;-88
2021/07/12 16:33:52;;;;;;;7.30;3.85;;;;;;;;;;3635067;39;20236;-88
2021/07/12 16:39:36;;;;;;;3.85;3.55;;;;;;;;;;1220454;22;21874;-85
2021/07/12 16:52:48;;;;;;;16.60;4.15;;;;;;;;;;3634226;39;20228;-87